Time;durP1;ratioP1;P1;durP2;ratioP2;P2;SDS_P1;SDS_P2;PMS_P1;PMS_P2;Temp;Humidity;BMP_temperature;BMP_pressure;BME280_temperature;BME280_humidity;BME280_pressure;Samples;Min_cycle;Max_cycle;Signal;HPM_P1;HPM_P2
2022/09/26 00:02:04;;;;;;;2.9;1.9;;;;;;;;;;;;;
2022/09/26 00:04:29;;;;;;;1.7;1.6;;;;;;;;;;;;;
2022/09/26 00:06:56;;;;;;;1.9;1.8;;;;;;;;;;;;;
2022/09/26 00:09:21;;;;;;;1.7;1.6;;;;;;;;;;;;;
2022/09/26 00:11:48;;;;;;;2.5;1.8;;;;;;;;;;;;;
2022/09/26 00:14:14;;;;;;;3.6;1.8;;;;;;;;;;;;;
2022/09/26 00:16:39;;;;;;;1.5;1.4;;;;;;;;;;;;;
2022/09/26 00:19:05;;;;;;;2.1;1.7;;;;;;;;;;;;;
2022/09/26 00:21:30;;;;;;;3.5;1.8;;;;;;;;;;;;;
2022/09/26 00:23:56;;;;;;;1.8;1.6;;;;;;;;;;;;;
2022/09/26 00:26:21;;;;;;;1.8;1.6;;;;;;;;;;;;;
2022/09/26 00:28:46;;;;;;;3.6;1.8;;;;;;;;;;;;;
2022/09/26 00:31:11;;;;;;;1.9;1.7;;;;;;;;;;;;;
2022/09/26 00:33:36;;;;;;;1.9;1.8;;;;;;;;;;;;;
2022/09/26 00:36:02;;;;;;;1.9;1.5;;;;;;;;;;;;;
2022/09/26 00:38:28;;;;;;;1.9;1.7;;;;;;;;;;;;;
2022/09/26 00:40:53;;;;;;;3.3;1.8;;;;;;;;;;;;;
2022/09/26 00:43:18;;;;;;;1.8;1.7;;;;;;;;;;;;;
2022/09/26 00:45:44;;;;;;;2.7;1.9;;;;;;;;;;;;;
2022/09/26 00:48:09;;;;;;;3;1.9;;;;;;;;;;;;;
2022/09/26 00:50:35;;;;;;;2.1;1.9;;;;;;;;;;;;;
2022/09/26 00:53:00;;;;;;;2;1.8;;;;;;;;;;;;;
2022/09/26 00:55:27;;;;;;;2.7;2.1;;;;;;;;;;;;;
2022/09/26 00:57:52;;;;;;;3;2.1;;;;;;;;;;;;;
2022/09/26 01:00:18;;;;;;;1.9;1.8;;;;;;;;;;;;;
2022/09/26 01:02:43;;;;;;;3;2.3;;;;;;;;;;;;;
2022/09/26 01:05:13;;;;;;;2.1;1.9;;;;;;;;;;;;;
2022/09/26 01:07:40;;;;;;;1.7;1.6;;;;;;;;;;;;;
2022/09/26 01:10:05;;;;;;;2.1;1.8;;;;;;;;;;;;;
2022/09/26 01:12:31;;;;;;;3;2.2;;;;;;;;;;;;;
2022/09/26 01:14:56;;;;;;;2.9;1.7;;;;;;;;;;;;;
2022/09/26 01:17:24;;;;;;;1.2;1.2;;;;;;;;;;;;;
2022/09/26 01:19:50;;;;;;;2.6;1.4;;;;;;;;;;;;;
2022/09/26 01:22:15;;;;;;;1.2;1.1;;;;;;;;;;;;;
2022/09/26 01:24:40;;;;;;;2.5;1.3;;;;;;;;;;;;;
2022/09/26 01:27:05;;;;;;;1.3;1.2;;;;;;;;;;;;;
2022/09/26 01:29:31;;;;;;;2.2;1.3;;;;;;;;;;;;;
2022/09/26 01:32:49;;;;;;;1.9;1.8;;;;;;;;;;;;;
2022/09/26 01:34:21;;;;;;;2.3;1.9;;;;;;;;;;;;;
2022/09/26 01:36:46;;;;;;;2.1;1.9;;;;;;;;;;;;;
2022/09/26 01:39:11;;;;;;;3.1;1.7;;;;;;;;;;;;;
2022/09/26 01:41:36;;;;;;;2.9;2;;;;;;;;;;;;;
2022/09/26 01:44:03;;;;;;;2.2;2;;;;;;;;;;;;;
2022/09/26 01:46:27;;;;;;;4;2.7;;;;;;;;;;;;;
2022/09/26 01:48:54;;;;;;;2.9;2.4;;;;;;;;;;;;;
2022/09/26 01:51:19;;;;;;;2.9;2;;;;;;;;;;;;;
2022/09/26 01:53:44;;;;;;;3.1;2.2;;;;;;;;;;;;;
2022/09/26 01:56:09;;;;;;;2.3;2.1;;;;;;;;;;;;;
2022/09/26 01:58:36;;;;;;;2.8;1.9;;;;;;;;;;;;;
2022/09/26 02:01:01;;;;;;;2.4;2.2;;;;;;;;;;;;;
2022/09/26 02:03:28;;;;;;;3.1;2;;;;;;;;;;;;;
2022/09/26 02:05:52;;;;;;;3.2;2.4;;;;;;;;;;;;;
2022/09/26 02:08:19;;;;;;;3.1;2.2;;;;;;;;;;;;;
2022/09/26 02:10:45;;;;;;;3.4;2.3;;;;;;;;;;;;;
2022/09/26 02:13:10;;;;;;;2.9;2;;;;;;;;;;;;;
2022/09/26 02:15:35;;;;;;;2;1.9;;;;;;;;;;;;;
2022/09/26 02:18:02;;;;;;;2.5;2;;;;;;;;;;;;;
2022/09/26 02:20:27;;;;;;;2.2;2;;;;;;;;;;;;;
2022/09/26 02:22:53;;;;;;;2.6;1.7;;;;;;;;;;;;;
2022/09/26 02:25:19;;;;;;;2.2;2;;;;;;;;;;;;;
2022/09/26 02:27:45;;;;;;;2.3;2.1;;;;;;;;;;;;;
2022/09/26 02:30:14;;;;;;;2.6;2.2;;;;;;;;;;;;;
2022/09/26 02:32:39;;;;;;;2.9;2.1;;;;;;;;;;;;;
2022/09/26 02:35:52;;;;;;;3.4;2.5;;;;;;;;;;;;;
2022/09/26 02:37:31;;;;;;;3.2;2.4;;;;;;;;;;;;;
2022/09/26 02:39:56;;;;;;;2.5;2.3;;;;;;;;;;;;;
2022/09/26 02:42:22;;;;;;;2.4;2.1;;;;;;;;;;;;;
2022/09/26 02:44:46;;;;;;;2.2;2;;;;;;;;;;;;;
2022/09/26 02:47:11;;;;;;;3.8;2.5;;;;;;;;;;;;;
2022/09/26 02:49:37;;;;;;;4.4;2.7;;;;;;;;;;;;;
2022/09/26 02:52:02;;;;;;;3;2.4;;;;;;;;;;;;;
2022/09/26 02:54:27;;;;;;;4.1;2.6;;;;;;;;;;;;;
2022/09/26 02:56:54;;;;;;;2.2;2;;;;;;;;;;;;;
2022/09/26 02:59:20;;;;;;;2;1.8;;;;;;;;;;;;;
2022/09/26 03:01:44;;;;;;;2.9;2.1;;;;;;;;;;;;;
2022/09/26 03:04:10;;;;;;;2.3;2.1;;;;;;;;;;;;;
2022/09/26 03:06:34;;;;;;;3.1;2;;;;;;;;;;;;;
2022/09/26 03:09:00;;;;;;;2;1.8;;;;;;;;;;;;;
2022/09/26 03:11:25;;;;;;;2.3;2.1;;;;;;;;;;;;;
2022/09/26 03:13:50;;;;;;;2.4;2.2;;;;;;;;;;;;;
2022/09/26 03:16:19;;;;;;;3.2;2.1;;;;;;;;;;;;;
2022/09/26 03:18:44;;;;;;;1.9;1.8;;;;;;;;;;;;;
2022/09/26 03:21:13;;;;;;;2.2;2;;;;;;;;;;;;;
2022/09/26 03:23:37;;;;;;;2.7;2.2;;;;;;;;;;;;;
2022/09/26 03:26:02;;;;;;;2.5;2.3;;;;;;;;;;;;;
2022/09/26 03:28:28;;;;;;;5.1;3.1;;;;;;;;;;;;;
2022/09/26 03:30:53;;;;;;;2.7;2.5;;;;;;;;;;;;;
2022/09/26 03:33:18;;;;;;;3.1;2.2;;;;;;;;;;;;;
2022/09/26 03:35:45;;;;;;;2.4;2;;;;;;;;;;;;;
2022/09/26 03:38:10;;;;;;;5.4;2.7;;;;;;;;;;;;;
2022/09/26 03:40:41;;;;;;;2.5;2.3;;;;;;;;;;;;;
2022/09/26 03:43:02;;;;;;;3.6;2.2;;;;;;;;;;;;;
2022/09/26 03:45:29;;;;;;;2.6;2.4;;;;;;;;;;;;;
2022/09/26 03:47:54;;;;;;;2.5;2.3;;;;;;;;;;;;;
2022/09/26 03:50:19;;;;;;;2.4;2.1;;;;;;;;;;;;;
2022/09/26 03:52:44;;;;;;;3.3;3;;;;;;;;;;;;;
2022/09/26 03:55:12;;;;;;;2.6;2.4;;;;;;;;;;;;;
2022/09/26 03:57:36;;;;;;;2.8;2.2;;;;;;;;;;;;;
2022/09/26 04:00:02;;;;;;;2.2;1.9;;;;;;;;;;;;;
2022/09/26 04:02:33;;;;;;;2.8;1.7;;;;;;;12.13;95.95313;931.3061;;;;
2022/09/26 04:13:21;;;;;;;2.3;1.7;;;;;;;12.04;96.90625;931.4217;;;;
2022/09/26 04:15:46;;;;;;;2.6;1.9;;;;;;;12.01;97.24414;931.3572;;;;
2022/09/26 04:21:47;;;;;;;3.8;2.4;;;;;;;12.09;96.65332;931.2545;;;;
2022/09/26 04:24:13;;;;;;;2.4;1.9;;;;;;;12.08;96.45801;931.2698;;;;
2022/09/26 04:26:38;;;;;;;2.6;2;;;;;;;12.03;96.24023;931.2686;;;;
2022/09/26 04:29:06;;;;;;;2.1;1.9;;;;;;;12.01;96.28223;931.2541;;;;
2022/09/26 04:31:35;;;;;;;2.1;1.8;;;;;;;12.04;95.98828;931.2988;;;;
2022/09/26 04:33:56;;;;;;;2.2;1.5;;;;;;;11.99;96.00098;931.3053;;;;
2022/09/26 04:36:21;;;;;;;1.7;1.4;;;;;;;11.93;96.0918;931.2634;;;;
2022/09/26 04:38:59;;;;;;;1.6;1.5;;;;;;;11.88;96.33203;931.1992;;;;
2022/09/26 04:41:26;;;;;;;1.6;1.5;;;;;;;11.88;96.84766;931.2215;;;;
2022/09/26 04:43:56;;;;;;;1.7;1.5;;;;;;;11.92;96.67383;931.1303;;;;
2022/09/26 04:46:21;;;;;;;1.6;1.5;;;;;;;11.95;96.43945;931.1516;;;;
2022/09/26 04:48:53;;;;;;;1.8;1.7;;;;;;;11.98;95.85156;931.117;;;;
2022/09/26 04:51:24;;;;;;;2.3;1.7;;;;;;;11.97;95.81543;931.1339;;;;
2022/09/26 04:53:53;;;;;;;1.5;1.3;;;;;;;12.03;95.67871;931.0994;;;;
2022/09/26 04:56:22;;;;;;;4.2;1.8;;;;;;;12;96.09668;931.073;;;;
2022/09/26 04:58:47;;;;;;;2.5;1.8;;;;;;;12.01;96.05273;931.0905;;;;
2022/09/26 05:01:17;;;;;;;2.3;2.1;;;;;;;12.03;95.66699;931.105;;;;
2022/09/26 05:03:50;;;;;;;4.2;2.4;;;;;;;11.92;96.25977;931.0681;;;;
2022/09/26 05:06:16;;;;;;;2;1.6;;;;;;;11.91;96.33789;931.0562;;;;
2022/09/26 05:08:45;;;;;;;2.4;1.8;;;;;;;11.94;96.24121;931.0457;;;;
2022/09/26 05:11:06;;;;;;;2;1.9;;;;;;;11.95;96.13965;930.988;;;;
2022/09/26 05:13:34;;;;;;;2.5;1.6;;;;;;;11.93;96.21777;931.0066;;;;
2022/09/26 05:16:01;;;;;;;2.1;1.9;;;;;;;11.95;96.21289;930.9744;;;;
2022/09/26 05:19:05;;;;;;;2.2;1.7;;;;;;;11.93;96.21582;931.0266;;;;
2022/09/26 05:21:36;;;;;;;2.6;1.9;;;;;;;11.92;96.67188;931.0809;;;;
2022/09/26 05:27:32;;;;;;;1.8;1.7;;;;;;;11.95;96.19727;931.1795;;;;
2022/09/26 05:30:02;;;;;;;2.1;1.9;;;;;;;12.01;95.65137;931.1144;;;;
2022/09/26 05:32:30;;;;;;;2.7;2.5;;;;;;;12.08;95.49414;931.111;;;;
2022/09/26 05:34:56;;;;;;;2.6;2.4;;;;;;;12.1;95.37402;931.0694;;;;
2022/09/26 05:37:20;;;;;;;3.5;2.7;;;;;;;12.11;95.37598;931.0812;;;;
2022/09/26 05:42:12;;;;;;;3.7;2.7;;;;;;;12.13;95.93945;931.1138;;;;
2022/09/26 05:44:38;;;;;;;3.1;2.3;;;;;;;12.13;95.33398;931.0706;;;;
2022/09/26 05:47:08;;;;;;;3;2;;;;;;;12.08;95.81445;931.0623;;;;
2022/09/26 05:49:34;;;;;;;3.3;2.4;;;;;;;12.13;95.71191;931.0652;;;;
2022/09/26 05:51:58;;;;;;;2.2;2;;;;;;;12.18;94.87402;931.0048;;;;
2022/09/26 06:00:49;;;;;;;3.1;2.6;;;;;;;11.94;96.80176;930.9188;;;;
2022/09/26 06:03:12;;;;;;;4.1;2.9;;;;;;;11.9;95.98047;930.8856;;;;
2022/09/26 06:05:38;;;;;;;3.5;2.6;;;;;;;11.88;95.79395;930.8848;;;;
2022/09/26 06:08:06;;;;;;;3.3;2.8;;;;;;;11.97;96.15918;930.8386;;;;
2022/09/26 06:10:37;;;;;;;3.7;2.1;;;;;;;12.05;95.49902;930.9053;;;;
2022/09/26 06:13:09;;;;;;;2.5;2;;;;;;;11.92;94.83008;930.9261;;;;
2022/09/26 06:15:37;;;;;;;3.6;2;;;;;;;11.84;96.01465;930.945;;;;
2022/09/26 06:18:03;;;;;;;2.1;1.6;;;;;;;11.92;95.78027;930.9708;;;;
2022/09/26 06:20:34;;;;;;;1.8;1.7;;;;;;;11.87;95.45996;931.0062;;;;
2022/09/26 06:23:04;;;;;;;3.2;1.8;;;;;;;11.9;95.62598;930.9853;;;;
2022/09/26 06:25:28;;;;;;;1.7;1.4;;;;;;;11.92;95.74414;930.9006;;;;
2022/09/26 06:27:57;;;;;;;1.7;1.6;;;;;;;11.95;95.69336;930.9163;;;;
2022/09/26 06:30:22;;;;;;;1.5;1.4;;;;;;;12.18;95.45801;930.9083;;;;
2022/09/26 06:32:49;;;;;;;2.1;1.6;;;;;;;12.64;94.90723;930.8056;;;;
2022/09/26 06:35:14;;;;;;;1.4;1.3;;;;;;;13.08;90.74121;930.8259;;;;
2022/09/26 06:37:39;;;;;;;1.7;1.1;;;;;;;13.05;89.40137;930.7864;;;;
2022/09/26 06:43:49;;;;;;;1.3;1.2;;;;;;;13.38;88.34375;930.7828;;;;
2022/09/26 06:46:15;;;;;;;1.2;1.1;;;;;;;13.5;87.58594;930.7823;;;;
2022/09/26 06:55:35;;;;;;;1.4;1.3;;;;;;;13.28;87.86621;930.8081;;;;
2022/09/26 06:58:02;;;;;;;2.2;1.6;;;;;;;13.27;88.21875;930.777;;;;
2022/09/26 07:00:28;;;;;;;2.6;1.6;;;;;;;13.23;87.5791;930.7543;;;;
2022/09/26 07:02:58;;;;;;;1.9;1.7;;;;;;;13.11;87.24414;930.6969;;;;
2022/09/26 07:05:34;;;;;;;2.8;2.2;;;;;;;13.14;87.68555;930.8437;;;;
2022/09/26 07:08:05;;;;;;;4.1;2.4;;;;;;;13.3;88.15723;930.8325;;;;
2022/09/26 07:10:35;;;;;;;2;1.6;;;;;;;13.35;88.31543;930.8031;;;;
2022/09/26 07:13:01;;;;;;;1.4;1.3;;;;;;;13.71;89.02148;930.7723;;;;
2022/09/26 07:15:26;;;;;;;1.1;1;;;;;;;13.97;85.43848;930.7311;;;;
2022/09/26 07:17:52;;;;;;;1.2;1.1;;;;;;;14.23;84.38281;930.6906;;;;
2022/09/26 07:20:30;;;;;;;1.5;1;;;;;;;14.23;81.33105;930.6361;;;;
2022/09/26 07:22:54;;;;;;;1.2;1.1;;;;;;;14.24;80.62988;930.7352;;;;
2022/09/26 07:25:21;;;;;;;3.1;1.5;;;;;;;14.21;80.26855;930.7481;;;;
2022/09/26 07:27:55;;;;;;;1.8;1.4;;;;;;;14.18;82.71387;930.6655;;;;
2022/09/26 07:30:20;;;;;;;1.6;1.3;;;;;;;14.2;84.53809;930.657;;;;
2022/09/26 07:32:47;;;;;;;1.3;1.2;;;;;;;14.5;83.47852;930.644;;;;
2022/09/26 07:35:16;;;;;;;1.3;1.2;;;;;;;14.66;82.50684;930.6269;;;;
2022/09/26 07:37:39;;;;;;;1.1;1;;;;;;;14.69;82.9502;930.5808;;;;
2022/09/26 07:40:10;;;;;;;1.6;1.5;;;;;;;14.79;81.97754;930.5444;;;;
2022/09/26 07:42:44;;;;;;;1.5;1.4;;;;;;;14.82;81.22168;930.532;;;;
2022/09/26 07:45:16;;;;;;;1.9;1.5;;;;;;;14.61;80.71191;930.4872;;;;
2022/09/26 07:50:15;;;;;;;1.3;1.2;;;;;;;15.18;78.63574;930.3903;;;;
2022/09/26 07:52:42;;;;;;;1.4;1.3;;;;;;;16.26;75.89258;930.4005;;;;
2022/09/26 07:55:07;;;;;;;2.9;1.3;;;;;;;16.78;74.55566;930.3615;;;;
2022/09/26 07:57:34;;;;;;;1.7;1.4;;;;;;;17.32;70.82031;930.3455;;;;
2022/09/26 07:59:59;;;;;;;1.7;1;;;;;;;18.15;65.76074;930.3962;;;;
2022/09/26 08:02:32;;;;;;;1.5;0.9;;;;;;;18.25;64.27832;930.3934;;;;
2022/09/26 08:04:54;;;;;;;0.9;0.8;;;;;;;18.88;61.53027;930.3473;;;;
2022/09/26 08:07:20;;;;;;;0.8;0.8;;;;;;;19.57;59.62109;930.2812;;;;
2022/09/26 08:09:45;;;;;;;0.7;0.7;;;;;;;18.99;60.05566;930.2142;;;;
2022/09/26 08:12:13;;;;;;;0.9;0.6;;;;;;;18.97;55.54688;930.2095;;;;
2022/09/26 08:14:38;;;;;;;0.7;0.7;;;;;;;19.7;56.19922;930.1741;;;;
2022/09/26 08:17:05;;;;;;;0.8;0.8;;;;;;;20.1;55.7373;930.1693;;;;
2022/09/26 08:19:30;;;;;;;1.4;0.9;;;;;;;19.66;59.80859;930.212;;;;
2022/09/26 08:21:56;;;;;;;0.8;0.8;;;;;;;19.96;58.15723;930.0657;;;;
2022/09/26 08:24:21;;;;;;;2.3;0.8;;;;;;;19.83;62.12793;930.1065;;;;
2022/09/26 08:26:50;;;;;;;1.2;0.9;;;;;;;20.83;59.06641;930.1392;;;;
2022/09/26 08:29:15;;;;;;;1.4;0.8;;;;;;;21.67;52.59668;930.116;;;;
2022/09/26 08:31:46;;;;;;;1;0.8;;;;;;;21.59;49.40137;930.0853;;;;
2022/09/26 08:34:11;;;;;;;0.9;0.7;;;;;;;21.1;55.44141;930.1178;;;;
2022/09/26 08:36:40;;;;;;;1.6;0.6;;;;;;;20.94;53.64453;930.105;;;;
2022/09/26 08:39:05;;;;;;;0.8;0.6;;;;;;;21.13;56.35742;930.1333;;;;
2022/09/26 08:41:33;;;;;;;0.6;0.6;;;;;;;22.49;49.74902;930.0723;;;;
2022/09/26 08:44:02;;;;;;;1.6;0.8;;;;;;;21.86;52.37402;930.0527;;;;
2022/09/26 08:46:51;;;;;;;0.5;0.5;;;;;;;20.78;55.10938;930.0128;;;;
2022/09/26 08:48:57;;;;;;;0.7;0.7;;;;;;;18.83;58.61328;930.0225;;;;
2022/09/26 08:51:22;;;;;;;0.5;0.5;;;;;;;17.88;61.59961;930.0019;;;;
2022/09/26 08:53:53;;;;;;;1.4;1;;;;;;;17.56;64.88379;929.9797;;;;
2022/09/26 08:56:23;;;;;;;0.5;0.5;;;;;;;18.82;60.59082;929.8976;;;;
2022/09/26 08:58:50;;;;;;;0.5;0.5;;;;;;;19.83;56.63574;929.9075;;;;
2022/09/26 09:01:13;;;;;;;0.5;0.5;;;;;;;20.63;54.36621;929.9384;;;;
2022/09/26 09:03:38;;;;;;;1;0.7;;;;;;;19.48;55.63379;929.8914;;;;
2022/09/26 09:06:06;;;;;;;0.8;0.8;;;;;;;19.47;58.95508;929.8892;;;;
2022/09/26 09:08:31;;;;;;;0.6;0.5;;;;;;;20.44;54.15625;929.8392;;;;
2022/09/26 09:10:56;;;;;;;1.6;0.8;;;;;;;19.43;59.12402;929.8092;;;;
2022/09/26 09:13:21;;;;;;;0.7;0.7;;;;;;;19.22;57.25586;929.7529;;;;
2022/09/26 09:15:55;;;;;;;0.9;0.8;;;;;;;19.29;56.22852;929.7843;;;;
2022/09/26 09:18:26;;;;;;;0.6;0.6;;;;;;;19.31;54.4834;929.7885;;;;
2022/09/26 09:20:48;;;;;;;0.5;0.5;;;;;;;18.72;58.76074;929.8487;;;;
2022/09/26 09:24:23;;;;;;;0.5;0.5;;;;;;;18.85;58.09277;929.8233;;;;
2022/09/26 09:26:48;;;;;;;0.6;0.6;;;;;;;18.24;59.66309;929.632;;;;
2022/09/26 09:29:14;;;;;;;1.2;0.8;;;;;;;18.29;61.77246;929.6942;;;;
2022/09/26 09:31:42;;;;;;;0.8;0.8;;;;;;;19.32;55.54492;929.6055;;;;
2022/09/26 09:34:08;;;;;;;0.7;0.7;;;;;;;18.99;55.79395;929.5457;;;;
2022/09/26 09:36:33;;;;;;;0.8;0.8;;;;;;;18.69;54.7207;929.4885;;;;
2022/09/26 09:38:58;;;;;;;1.6;0.9;;;;;;;18.32;58.80176;929.5101;;;;
2022/09/26 09:41:27;;;;;;;1.1;1;;;;;;;17.86;58.99609;929.462;;;;
2022/09/26 09:43:53;;;;;;;1.7;1;;;;;;;17.3;60.67188;929.4118;;;;
2022/09/26 09:46:17;;;;;;;0.9;0.8;;;;;;;17.07;61.82227;929.457;;;;
2022/09/26 09:48:42;;;;;;;1.1;0.8;;;;;;;17.12;64.04199;929.4131;;;;
2022/09/26 09:51:12;;;;;;;0.8;0.8;;;;;;;17.17;62.3457;929.4258;;;;
2022/09/26 09:53:35;;;;;;;0.8;0.8;;;;;;;17.68;62.58008;929.3309;;;;
2022/09/26 09:56:01;;;;;;;0.9;0.9;;;;;;;18.23;62.06641;929.2957;;;;
2022/09/26 09:58:26;;;;;;;1;0.9;;;;;;;18.13;61.44824;929.2634;;;;
2022/09/26 10:00:52;;;;;;;1.2;0.8;;;;;;;18.24;62.16016;929.2291;;;;
2022/09/26 10:03:18;;;;;;;1.1;1;;;;;;;18.72;57.21484;929.1694;;;;
2022/09/26 10:05:50;;;;;;;0.9;0.9;;;;;;;17.7;60.07715;929.0909;;;;
2022/09/26 10:08:18;;;;;;;0.9;0.9;;;;;;;17.36;62.09473;929.0864;;;;
2022/09/26 10:10:43;;;;;;;1.2;1;;;;;;;17.38;62.94531;928.9763;;;;
2022/09/26 10:13:09;;;;;;;1.1;0.9;;;;;;;17.32;64.86133;929.0031;;;;
2022/09/26 10:15:40;;;;;;;1.7;1.2;;;;;;;17.51;67.46289;929.1063;;;;
2022/09/26 10:18:17;;;;;;;1.3;1.2;;;;;;;17.08;66.86523;929.0441;;;;
2022/09/26 10:20:36;;;;;;;1.2;1.1;;;;;;;17.01;68.05957;929.0193;;;;
2022/09/26 10:23:03;;;;;;;1.2;1.1;;;;;;;17.32;67.04102;928.9782;;;;
2022/09/26 10:25:26;;;;;;;0.8;0.8;;;;;;;17.54;63.01367;928.9658;;;;
2022/09/26 10:27:52;;;;;;;1;0.9;;;;;;;17.16;61.47559;929.0037;;;;
2022/09/26 10:30:24;;;;;;;0.8;0.8;;;;;;;17.6;62.33691;929.0197;;;;
2022/09/26 10:32:46;;;;;;;1.4;0.8;;;;;;;18.84;59.0459;929.0889;;;;
2022/09/26 10:35:14;;;;;;;0.7;0.7;;;;;;;19.49;55.91504;929.0739;;;;
2022/09/26 10:37:41;;;;;;;0.8;0.8;;;;;;;19.18;56.02832;929.0616;;;;
2022/09/26 10:42:41;;;;;;;0.7;0.7;;;;;;;17.59;59.65527;929.1199;;;;
2022/09/26 10:45:11;;;;;;;1;0.9;;;;;;;17.06;61.16992;929.0691;;;;
2022/09/26 10:47:32;;;;;;;0.8;0.8;;;;;;;16.17;64.66602;929.1215;;;;
2022/09/26 10:49:59;;;;;;;2.4;1;;;;;;;16.43;65.05273;929.0145;;;;
2022/09/26 10:52:24;;;;;;;2.7;1.1;;;;;;;17.48;61.78711;929.0538;;;;
2022/09/26 10:54:50;;;;;;;0.9;0.9;;;;;;;18.46;57.34277;929.0123;;;;
2022/09/26 10:57:20;;;;;;;0.7;0.7;;;;;;;18.75;55.78613;929.0775;;;;
2022/09/26 10:59:46;;;;;;;0.7;0.7;;;;;;;18.67;55.28809;929.065;;;;
2022/09/26 11:02:10;;;;;;;0.6;0.6;;;;;;;18.49;55.10352;929.0634;;;;
2022/09/26 11:07:04;;;;;;;0.7;0.7;;;;;;;18.04;57.61523;929.0059;;;;
2022/09/26 11:09:30;;;;;;;0.8;0.8;;;;;;;18.09;60.29297;929.0231;;;;
2022/09/26 11:11:55;;;;;;;0.7;0.7;;;;;;;19.5;56.03418;928.8834;;;;
2022/09/26 11:14:23;;;;;;;0.7;0.7;;;;;;;20.28;53.19043;928.8528;;;;
2022/09/26 11:16:49;;;;;;;0.7;0.7;;;;;;;20.68;51.9873;928.8533;;;;
2022/09/26 11:19:18;;;;;;;0.7;0.7;;;;;;;21.29;50.21094;928.8053;;;;
2022/09/26 11:21:44;;;;;;;0.6;0.6;;;;;;;21.43;49.20898;928.8265;;;;
2022/09/26 11:24:10;;;;;;;0.6;0.6;;;;;;;22.78;43.81738;928.8094;;;;
2022/09/26 11:26:35;;;;;;;1.4;0.7;;;;;;;22.68;42.91602;928.6257;;;;
2022/09/26 11:29:02;;;;;;;0.5;0.5;;;;;;;22.26;44.54004;928.7375;;;;
2022/09/26 11:31:27;;;;;;;0.8;0.7;;;;;;;20.6;46.66309;928.6992;;;;
2022/09/26 11:33:53;;;;;;;0.7;0.6;;;;;;;18.57;54.6123;928.6262;;;;
2022/09/26 11:36:18;;;;;;;0.7;0.7;;;;;;;18.14;55.17676;928.7512;;;;
2022/09/26 11:38:45;;;;;;;0.4;0.4;;;;;;;17.8;55.50488;928.6729;;;;
2022/09/26 11:41:08;;;;;;;0.7;0.7;;;;;;;17.45;57.17676;928.6581;;;;
2022/09/26 11:43:38;;;;;;;1;0.7;;;;;;;17.67;54.82617;928.6111;;;;
2022/09/26 11:46:07;;;;;;;0.7;0.7;;;;;;;17.93;55.21875;928.5948;;;;
2022/09/26 11:48:32;;;;;;;1.6;0.8;;;;;;;18.71;54.30469;928.6472;;;;
2022/09/26 11:51:00;;;;;;;0.8;0.8;;;;;;;18.37;54.28613;928.5961;;;;
2022/09/26 11:53:25;;;;;;;1;0.6;;;;;;;19.33;51.49121;928.5979;;;;
2022/09/26 11:55:54;;;;;;;0.7;0.7;;;;;;;20.32;51.12891;928.5922;;;;
2022/09/26 11:58:21;;;;;;;1.5;0.7;;;;;;;21.2;46.71582;928.5149;;;;
2022/09/26 12:00:46;;;;;;;0.6;0.6;;;;;;;21.59;45.85352;928.4186;;;;
2022/09/26 12:03:17;;;;;;;0.6;0.6;;;;;;;21.58;46.22852;928.3915;;;;
2022/09/26 12:05:47;;;;;;;1;0.8;;;;;;;21.4;45.97559;928.3967;;;;
2022/09/26 12:08:12;;;;;;;0.6;0.6;;;;;;;19.89;51.00879;928.3669;;;;
2022/09/26 12:10:35;;;;;;;0.7;0.7;;;;;;;18.95;52.91406;928.286;;;;
2022/09/26 12:13:03;;;;;;;0.6;0.6;;;;;;;18.51;55.11719;928.1663;;;;
2022/09/26 12:15:35;;;;;;;0.9;0.8;;;;;;;19.7;52.03613;928.1379;;;;
2022/09/26 12:18:03;;;;;;;0.6;0.6;;;;;;;20.57;48.5752;928.1426;;;;
2022/09/26 12:20:33;;;;;;;0.6;0.6;;;;;;;19.63;50.5127;928.1027;;;;
2022/09/26 12:22:58;;;;;;;1.1;0.9;;;;;;;20.64;48.0459;928.0184;;;;
2022/09/26 12:25:24;;;;;;;1.2;0.8;;;;;;;20.44;49.41406;928.0424;;;;
2022/09/26 12:28:10;;;;;;;0.4;0.4;;;;;;;20.42;46.86621;928.0723;;;;
2022/09/26 12:30:40;;;;;;;0.7;0.7;;;;;;;22.13;43.73047;928.0359;;;;
2022/09/26 12:33:09;;;;;;;0.7;0.7;;;;;;;23.36;40.00684;927.9814;;;;
2022/09/26 12:35:50;;;;;;;0.8;0.8;;;;;;;20.63;45.87207;927.9331;;;;
2022/09/26 12:38:20;;;;;;;0.7;0.7;;;;;;;21.97;45.24902;927.9357;;;;
2022/09/26 12:40:48;;;;;;;0.6;0.6;;;;;;;23.69;40.50684;927.767;;;;
2022/09/26 12:43:18;;;;;;;0.6;0.6;;;;;;;24.77;39.21289;927.7685;;;;
2022/09/26 12:45:42;;;;;;;0.8;0.8;;;;;;;22.04;43.4043;927.7332;;;;
2022/09/26 12:48:11;;;;;;;1.8;0.7;;;;;;;21.61;45.51563;927.7405;;;;
2022/09/26 12:50:36;;;;;;;0.7;0.7;;;;;;;24.84;39.85645;927.6442;;;;
2022/09/26 12:53:00;;;;;;;1;0.7;;;;;;;25.81;36.36035;927.6541;;;;
2022/09/26 12:55:26;;;;;;;0.8;0.8;;;;;;;26.25;36.41992;927.6545;;;;
2022/09/26 12:57:51;;;;;;;0.8;0.8;;;;;;;24.81;40.12402;927.6357;;;;
2022/09/26 13:00:19;;;;;;;0.7;0.6;;;;;;;25.74;37.34766;927.6111;;;;
2022/09/26 13:02:41;;;;;;;0.7;0.7;;;;;;;24.17;39.7373;927.6247;;;;
2022/09/26 13:05:17;;;;;;;0.7;0.7;;;;;;;23.7;40.23633;927.5831;;;;
2022/09/26 13:07:44;;;;;;;0.6;0.6;;;;;;;20.73;45.29785;927.5499;;;;
2022/09/26 13:10:17;;;;;;;1.1;0.8;;;;;;;20.44;46.51758;927.567;;;;
2022/09/26 13:12:42;;;;;;;0.6;0.6;;;;;;;20.78;46.37793;927.55;;;;
2022/09/26 13:15:14;;;;;;;1.1;1;;;;;;;21.68;43.55664;927.5101;;;;
2022/09/26 13:17:44;;;;;;;0.7;0.7;;;;;;;21.8;42.95898;927.51;;;;
2022/09/26 13:20:16;;;;;;;0.7;0.7;;;;;;;22.47;42.19043;927.4738;;;;
2022/09/26 13:22:43;;;;;;;0.7;0.7;;;;;;;26.28;35.14453;927.4595;;;;
2022/09/26 13:25:08;;;;;;;0.7;0.7;;;;;;;28.35;33.00098;927.3555;;;;
2022/09/26 13:27:37;;;;;;;0.6;0.6;;;;;;;28.9;29.7793;927.2411;;;;
2022/09/26 13:30:02;;;;;;;0.5;0.5;;;;;;;27.23;32.6582;927.2539;;;;
2022/09/26 13:32:29;;;;;;;0.7;0.7;;;;;;;28.67;29.0625;927.3359;;;;
2022/09/26 13:34:54;;;;;;;0.5;0.5;;;;;;;27.18;31.18359;927.2283;;;;
2022/09/26 13:37:19;;;;;;;0.7;0.7;;;;;;;26.81;32.55566;927.2098;;;;
2022/09/26 13:39:46;;;;;;;0.6;0.6;;;;;;;27.21;31.81445;927.2103;;;;
2022/09/26 13:42:13;;;;;;;0.5;0.5;;;;;;;27.76;30.66602;927.2489;;;;
2022/09/26 13:44:40;;;;;;;0.5;0.5;;;;;;;29.23;28.68164;927.2422;;;;
2022/09/26 13:47:05;;;;;;;0.8;0.8;;;;;;;28.05;31.04199;927.1644;;;;
2022/09/26 13:49:30;;;;;;;0.5;0.5;;;;;;;29.45;27.52734;927.1217;;;;
2022/09/26 13:51:56;;;;;;;0.8;0.7;;;;;;;25.98;34.34082;927.1301;;;;
2022/09/26 13:54:21;;;;;;;1.2;0.8;;;;;;;26.12;33.14453;927.0378;;;;
2022/09/26 13:56:47;;;;;;;0.5;0.5;;;;;;;27.98;30.16992;927.079;;;;
2022/09/26 13:59:13;;;;;;;0.6;0.6;;;;;;;25.95;34.53906;927.0493;;;;
2022/09/26 14:01:44;;;;;;;1.1;0.6;;;;;;;25.62;33.92285;927.0229;;;;
2022/09/26 14:04:08;;;;;;;0.7;0.7;;;;;;;24.49;36.3125;927.0286;;;;
2022/09/26 14:06:40;;;;;;;0.7;0.7;;;;;;;23.84;38.10742;927.0245;;;;
2022/09/26 14:09:28;;;;;;;0.7;0.7;;;;;;;24.11;37.97656;926.9883;;;;
2022/09/26 14:11:43;;;;;;;1;0.9;;;;;;;24.52;37.55273;926.9752;;;;
2022/09/26 14:14:08;;;;;;;0.9;0.9;;;;;;;23.12;39.39746;926.9731;;;;
2022/09/26 14:16:37;;;;;;;2.3;0.9;;;;;;;21.85;43.56152;927.0234;;;;
2022/09/26 14:19:05;;;;;;;1.9;1.1;;;;;;;21.6;43.52539;927.0133;;;;
2022/09/26 14:21:32;;;;;;;1.4;1;;;;;;;21.5;43.9375;926.9405;;;;
2022/09/26 14:23:57;;;;;;;1.5;0.8;;;;;;;20.78;45.17383;926.9933;;;;
2022/09/26 14:26:33;;;;;;;1.1;1;;;;;;;20.1;46.7627;926.9799;;;;
2022/09/26 14:29:00;;;;;;;1.3;0.8;;;;;;;20.02;46.60156;926.9819;;;;
2022/09/26 14:31:25;;;;;;;1;0.9;;;;;;;19.71;47.62988;927.0025;;;;
2022/09/26 14:33:52;;;;;;;1;1;;;;;;;19.1;49.5791;926.8569;;;;
2022/09/26 14:36:21;;;;;;;1.2;1.1;;;;;;;18.41;51.09375;926.8962;;;;
2022/09/26 14:38:46;;;;;;;1.3;0.9;;;;;;;18.17;52.1582;926.8333;;;;
2022/09/26 14:41:11;;;;;;;1.4;1.3;;;;;;;18.05;53.5957;926.7833;;;;
2022/09/26 14:43:36;;;;;;;1.1;1;;;;;;;18.25;53.54004;926.73;;;;
2022/09/26 14:46:01;;;;;;;1.9;1.2;;;;;;;18.36;52.19141;926.7144;;;;
2022/09/26 14:48:27;;;;;;;1.2;1.1;;;;;;;17.95;52.67773;926.6262;;;;
2022/09/26 14:50:54;;;;;;;2.6;1.1;;;;;;;17.71;54.47168;926.6365;;;;
2022/09/26 14:53:19;;;;;;;1.2;1.1;;;;;;;17.48;52.73828;926.702;;;;
2022/09/26 14:55:45;;;;;;;1.2;1.1;;;;;;;17.31;52.70508;926.7346;;;;
2022/09/26 14:58:15;;;;;;;0.9;0.9;;;;;;;17.56;52.99121;926.7559;;;;
2022/09/26 15:00:44;;;;;;;1.8;1.3;;;;;;;17.58;54.54785;926.7277;;;;
2022/09/26 15:03:10;;;;;;;1.3;1.2;;;;;;;17.26;54.55469;926.7227;;;;
2022/09/26 15:05:36;;;;;;;1.8;1.5;;;;;;;17.06;55.81738;926.7411;;;;
2022/09/26 15:08:01;;;;;;;2.2;1.1;;;;;;;16.73;56.75977;926.6855;;;;
2022/09/26 15:10:26;;;;;;;1.2;1.1;;;;;;;16.6;57.54102;926.7158;;;;
2022/09/26 15:12:51;;;;;;;1.3;1.2;;;;;;;16.5;57.88672;926.69;;;;
2022/09/26 15:15:17;;;;;;;1.5;1.3;;;;;;;16.2;58.51758;926.6588;;;;
2022/09/26 15:17:42;;;;;;;1.3;1.2;;;;;;;15.92;59.47461;926.7489;;;;
2022/09/26 15:20:16;;;;;;;1.5;1.2;;;;;;;16.02;58.27539;926.7228;;;;
2022/09/26 15:22:41;;;;;;;1.1;1;;;;;;;15.72;59.81836;926.7406;;;;
2022/09/26 15:25:06;;;;;;;1.4;1.3;;;;;;;15.69;58.91211;926.7648;;;;
2022/09/26 15:27:31;;;;;;;1.4;1.3;;;;;;;15.53;59.39844;926.7449;;;;
2022/09/26 15:30:02;;;;;;;1.6;1.4;;;;;;;15.42;60.36523;926.7679;;;;
2022/09/26 15:32:30;;;;;;;1.6;1.4;;;;;;;15.5;60.05273;926.7833;;;;
2022/09/26 15:35:01;;;;;;;1.7;1.4;;;;;;;15.68;58.98047;926.7596;;;;
2022/09/26 15:37:28;;;;;;;1.5;1.2;;;;;;;15.83;59.53125;926.7541;;;;
2022/09/26 15:39:52;;;;;;;1.8;1.3;;;;;;;15.92;59.27734;926.7353;;;;
2022/09/26 15:44:43;;;;;;;1.5;1.4;;;;;;;15.9;58.30469;926.7712;;;;
2022/09/26 15:47:08;;;;;;;1.5;1.4;;;;;;;15.88;57.46973;926.7436;;;;
2022/09/26 15:49:38;;;;;;;1.6;1.3;;;;;;;15.8;57.13672;926.7238;;;;
2022/09/26 15:52:06;;;;;;;1.3;1.2;;;;;;;15.81;58.01465;926.7534;;;;
2022/09/26 15:54:31;;;;;;;1.4;1.3;;;;;;;15.58;57.62695;926.6934;;;;
2022/09/26 15:57:00;;;;;;;1.7;1.6;;;;;;;15.61;57.59473;926.6956;;;;
2022/09/26 15:59:25;;;;;;;3.1;1.3;;;;;;;15.66;57.5918;926.7046;;;;
2022/09/26 16:01:54;;;;;;;1.4;1.3;;;;;;;15.71;57.28516;926.6544;;;;
2022/09/26 16:04:19;;;;;;;1.7;1.3;;;;;;;15.75;57.82324;926.6636;;;;
2022/09/26 16:06:44;;;;;;;1.7;1.1;;;;;;;15.67;58.13574;926.6283;;;;
2022/09/26 16:09:11;;;;;;;1.7;1.3;;;;;;;15.62;59.61816;926.6192;;;;
2022/09/26 16:11:36;;;;;;;1.6;1.3;;;;;;;15.46;60.72949;926.6191;;;;
2022/09/26 16:14:01;;;;;;;1.6;1.2;;;;;;;15.39;61.57422;926.6296;;;;
2022/09/26 16:16:30;;;;;;;2.6;1.7;;;;;;;15.26;62.11035;926.6411;;;;
2022/09/26 16:18:57;;;;;;;2;1.8;;;;;;;15.19;60.95703;926.6429;;;;
2022/09/26 16:21:24;;;;;;;1.9;1.5;;;;;;;15.27;61.83301;926.6099;;;;
2022/09/26 16:23:49;;;;;;;1.9;1.7;;;;;;;15.27;62.84863;926.637;;;;